createdAt,value
2018-04-19T00:00:11.390Z,15.61
2018-04-19T00:02:38.410Z,15.56
2018-04-19T00:05:06.793Z,15.64
2018-04-19T00:07:34.023Z,12.70
2018-04-19T00:10:01.079Z,15.67
2018-04-19T00:12:28.092Z,15.59
2018-04-19T00:14:55.087Z,15.63
2018-04-19T00:17:22.132Z,15.52
2018-04-19T00:19:49.193Z,15.45
2018-04-19T00:22:16.355Z,15.30
2018-04-19T00:24:43.428Z,15.21
2018-04-19T00:27:10.517Z,15.15
2018-04-19T00:29:37.632Z,15.14
2018-04-19T00:32:04.743Z,15.20
2018-04-19T00:34:31.881Z,14.98
2018-04-19T00:36:58.910Z,14.75
2018-04-19T00:39:25.991Z,14.59
2018-04-19T00:41:53.053Z,14.50
2018-04-19T00:44:20.862Z,14.35
2018-04-19T00:46:47.939Z,14.01
2018-04-19T00:49:14.966Z,13.83
2018-04-19T00:51:41.986Z,13.73
2018-04-19T00:54:09.046Z,13.65
2018-04-19T00:56:36.118Z,13.74
2018-04-19T00:59:03.172Z,14.37
2018-04-19T01:01:30.219Z,14.59
2018-04-19T01:03:57.263Z,14.49
2018-04-19T01:06:24.354Z,14.28
2018-04-19T01:08:52.141Z,14.16
2018-04-19T01:11:23.402Z,14.06
2018-04-19T01:13:50.453Z,13.99
2018-04-19T01:16:18.249Z,13.97
2018-04-19T01:18:45.283Z,13.98
2018-04-19T01:21:12.419Z,14.06
2018-04-19T01:23:39.480Z,14.08
2018-04-19T01:26:06.539Z,14.03
2018-04-19T01:28:33.586Z,14.07
2018-04-19T01:31:00.666Z,14.26
2018-04-19T01:33:28.452Z,14.39
2018-04-19T01:36:13.717Z,14.44
2018-04-19T01:38:41.782Z,14.52
2018-04-19T01:41:09.553Z,14.53
2018-04-19T01:43:36.661Z,14.56
2018-04-19T01:46:03.752Z,14.66
2018-04-19T01:48:31.521Z,14.65
2018-04-19T01:50:59.349Z,14.64
2018-04-19T01:53:26.364Z,14.88
2018-04-19T01:55:53.424Z,15.06
2018-04-19T01:58:20.454Z,14.91
2018-04-19T02:00:47.478Z,14.85
2018-04-19T02:03:14.517Z,14.67
2018-04-19T02:05:41.599Z,14.68
2018-04-19T02:08:08.679Z,14.89
2018-04-19T02:10:37.233Z,15.21
2018-04-19T02:13:04.321Z,14.98
2018-04-19T02:15:31.473Z,15.04
2018-04-19T02:17:58.509Z,15.03
2018-04-19T02:20:25.561Z,15.12
2018-04-19T02:22:52.614Z,15.19
2018-04-19T02:25:19.682Z,15.02
2018-04-19T02:27:46.768Z,15.08
2018-04-19T02:30:13.818Z,14.89
2018-04-19T02:32:40.852Z,14.79
2018-04-19T02:35:07.881Z,14.39
2018-04-19T02:37:34.926Z,14.79
2018-04-19T02:40:02.004Z,15.04
2018-04-19T02:42:29.051Z,14.77
2018-04-19T02:44:56.122Z,14.65
2018-04-19T02:47:23.199Z,14.64
2018-04-19T02:49:51.002Z,14.93
2018-04-19T02:52:18.001Z,14.86
2018-04-19T02:54:45.073Z,14.89
2018-04-19T02:57:12.829Z,14.99
2018-04-19T02:59:39.876Z,14.98
2018-04-19T03:02:06.965Z,15.08
2018-04-19T03:04:33.999Z,14.97
2018-04-19T03:07:01.080Z,15.17
2018-04-19T03:09:43.517Z,15.19
2018-04-19T03:12:18.272Z,15.15
2018-04-19T03:18:01.443Z,14.98
2018-04-19T03:20:31.671Z,14.95
2018-04-19T03:23:03.990Z,14.89
2018-04-19T03:25:31.360Z,14.78
2018-04-19T03:27:58.511Z,14.84
2018-04-19T03:30:26.421Z,15.07
2018-04-19T03:32:53.588Z,14.97
2018-04-19T03:35:20.759Z,14.90
2018-04-19T03:37:47.833Z,14.87
2018-04-19T03:40:15.610Z,14.75
2018-04-19T03:42:43.404Z,14.78
2018-04-19T03:45:10.446Z,14.75
2018-04-19T03:47:37.523Z,14.65
2018-04-19T03:50:04.553Z,14.52
2018-04-19T03:52:31.605Z,14.51
2018-04-19T03:54:58.626Z,14.42
2018-04-19T03:57:25.756Z,14.61
2018-04-19T03:59:53.538Z,14.41
2018-04-19T04:02:20.561Z,14.33
2018-04-19T04:04:48.381Z,14.34
2018-04-19T04:07:15.451Z,14.24
2018-04-19T04:09:42.549Z,14.42
2018-04-19T04:12:09.611Z,14.34
2018-04-19T04:14:36.679Z,14.38
2018-04-19T04:17:21.943Z,14.54
2018-04-19T04:20:01.956Z,14.57
2018-04-19T04:22:47.864Z,14.59
2018-04-19T04:25:14.929Z,14.68
2018-04-19T04:27:42.161Z,14.79
2018-04-19T04:30:09.207Z,14.74
2018-04-19T04:32:36.256Z,14.67
2018-04-19T04:35:03.427Z,14.64
2018-04-19T04:37:30.540Z,14.57
2018-04-19T04:39:58.359Z,14.56
2018-04-19T04:42:25.416Z,14.48
2018-04-19T04:44:52.481Z,14.41
2018-04-19T04:47:19.562Z,14.47
2018-04-19T04:49:46.649Z,14.50
2018-04-19T04:52:13.713Z,14.66
2018-04-19T04:54:40.782Z,14.69
2018-04-19T04:57:08.607Z,14.68
2018-04-19T04:59:35.761Z,14.74
2018-04-19T05:02:02.855Z,14.80
2018-04-19T05:04:30.698Z,14.87
2018-04-19T05:06:58.611Z,14.78
2018-04-19T05:09:25.726Z,15.05
2018-04-19T05:11:53.678Z,15.25
2018-04-19T05:14:20.761Z,15.30
2018-04-19T05:16:47.901Z,15.40
2018-04-19T05:19:15.773Z,15.39
2018-04-19T05:21:43.840Z,15.38
2018-04-19T05:24:11.643Z,15.52
2018-04-19T05:26:38.723Z,15.77
2018-04-19T05:29:05.814Z,15.96
2018-04-19T05:31:32.898Z,16.15
2018-04-19T05:34:00.002Z,16.22
2018-04-19T05:36:27.054Z,16.44
2018-04-19T05:38:54.140Z,16.87
2018-04-19T05:41:21.278Z,16.94
2018-04-19T05:43:48.359Z,17.09
2018-04-19T05:46:15.448Z,17.35
2018-04-19T05:48:43.278Z,17.64
2018-04-19T05:51:10.399Z,17.74
2018-04-19T05:53:37.463Z,17.64
2018-04-19T05:56:04.531Z,17.61
2018-04-19T05:58:31.598Z,17.76
2018-04-19T06:00:58.675Z,18.38
2018-04-19T06:03:25.735Z,18.31
2018-04-19T06:05:52.811Z,18.47
2018-04-19T06:08:19.871Z,18.65
2018-04-19T06:10:46.939Z,18.66
2018-04-19T06:13:14.063Z,18.79
2018-04-19T06:15:41.175Z,18.88
2018-04-19T06:18:08.238Z,18.81
2018-04-19T06:20:35.336Z,18.73
2018-04-19T06:23:02.456Z,18.73
2018-04-19T06:25:29.535Z,19.10
2018-04-19T06:27:56.649Z,19.47
2018-04-19T06:30:23.771Z,19.66
2018-04-19T06:32:50.831Z,19.70
2018-04-19T06:35:17.901Z,19.46
2018-04-19T06:37:45.683Z,19.76
2018-04-19T06:40:13.435Z,19.97
2018-04-19T06:42:40.423Z,20.19
2018-04-19T06:45:07.405Z,20.21
2018-04-19T06:47:34.383Z,20.37
2018-04-19T06:50:01.401Z,20.70
2018-04-19T06:52:28.391Z,20.81
2018-04-19T06:54:56.123Z,21.00
2018-04-19T06:57:23.178Z,21.18
2018-04-19T06:59:50.531Z,20.98
2018-04-19T07:02:17.531Z,21.30
2018-04-19T07:04:44.533Z,21.15
2018-04-19T07:07:11.586Z,21.21
2018-04-19T07:09:38.574Z,21.50
2018-04-19T07:12:05.603Z,21.91
2018-04-19T07:14:33.359Z,21.89
2018-04-19T07:17:00.405Z,21.55
2018-04-19T07:19:28.161Z,21.62
2018-04-19T07:21:55.876Z,21.37
2018-04-19T07:24:22.940Z,21.63
2018-04-19T07:26:49.947Z,21.52
2018-04-19T07:29:17.058Z,21.58
2018-04-19T07:31:44.068Z,21.82
2018-04-19T07:34:11.123Z,22.47
2018-04-19T07:36:38.186Z,23.29
2018-04-19T07:39:05.365Z,23.38
2018-04-19T07:41:33.120Z,23.16
2018-04-19T07:44:00.129Z,23.16
2018-04-19T07:46:27.136Z,22.91
2018-04-19T07:48:54.876Z,23.08
2018-04-19T07:51:22.925Z,23.41
2018-04-19T07:53:49.933Z,23.52
2018-04-19T07:56:17.076Z,23.56
2018-04-19T07:58:44.100Z,24.08
2018-04-19T08:01:11.933Z,23.82
2018-04-19T08:03:39.064Z,23.69
2018-04-19T08:06:07.596Z,23.71
2018-04-19T08:08:35.384Z,23.67
2018-04-19T08:11:02.406Z,24.04
2018-04-19T08:13:30.159Z,24.52
2018-04-19T08:15:57.234Z,24.74
2018-04-19T08:18:24.971Z,25.19
2018-04-19T08:20:51.941Z,25.48
2018-04-19T08:23:19.695Z,25.31
2018-04-19T08:25:47.451Z,25.30
2018-04-19T08:28:14.501Z,25.60
2018-04-19T08:30:42.301Z,25.85
2018-04-19T08:33:09.321Z,26.20
2018-04-19T08:35:36.366Z,26.07
2018-04-19T08:38:04.165Z,25.81
2018-04-19T08:40:31.184Z,25.70
2018-04-19T08:42:58.231Z,25.97
2018-04-19T08:45:25.993Z,26.18
2018-04-19T08:47:53.765Z,26.26
2018-04-19T08:50:21.496Z,26.47
2018-04-19T08:52:48.505Z,26.23
2018-04-19T08:55:15.516Z,26.40
2018-04-19T08:57:43.278Z,26.14
2018-04-19T09:00:11.023Z,25.85
2018-04-19T09:02:38.043Z,25.77
2018-04-19T09:05:05.054Z,25.38
2018-04-19T09:07:32.096Z,25.29
2018-04-19T09:09:59.176Z,25.23
2018-04-19T09:12:26.161Z,25.39
2018-04-19T09:14:53.397Z,25.38
2018-04-19T09:17:20.508Z,25.33
2018-04-19T09:19:47.556Z,25.18
2018-04-19T09:22:14.539Z,24.75
2018-04-19T09:24:41.524Z,25.13
2018-04-19T09:27:09.279Z,25.10
2018-04-19T09:29:36.418Z,25.46
2018-04-19T09:32:04.191Z,25.63
2018-04-19T09:34:31.269Z,25.59
2018-04-19T09:36:58.268Z,25.61
2018-04-19T09:39:25.240Z,25.46
2018-04-19T09:41:52.303Z,25.49
2018-04-19T09:44:19.314Z,25.62
2018-04-19T09:46:46.310Z,25.55
2018-04-19T09:49:13.281Z,25.55
2018-04-19T09:51:40.333Z,25.23
2018-04-19T09:54:07.491Z,25.50
2018-04-19T09:56:35.180Z,25.85
2018-04-19T09:59:12.067Z,26.71
2018-04-19T10:01:46.050Z,27.26
2018-04-19T10:04:13.110Z,27.04
2018-04-19T10:06:41.196Z,27.29
2018-04-19T10:09:08.949Z,27.54
2018-04-19T10:11:35.984Z,28.04
2018-04-19T10:14:03.020Z,28.26
2018-04-19T10:16:30.051Z,28.45
2018-04-19T10:18:57.051Z,28.82
2018-04-19T10:21:24.942Z,29.04
2018-04-19T10:23:51.906Z,29.22
2018-04-19T10:26:19.053Z,28.72
2018-04-19T10:28:46.374Z,28.58
2018-04-19T10:31:13.357Z,28.32
2018-04-19T10:33:40.370Z,28.46
2018-04-19T10:36:08.172Z,28.88
2018-04-19T10:38:35.216Z,28.99
2018-04-19T10:41:02.211Z,29.52
2018-04-19T10:43:29.971Z,29.80
2018-04-19T10:45:56.959Z,29.94
2018-04-19T10:48:23.970Z,29.94
2018-04-19T10:50:51.725Z,29.73
2018-04-19T10:53:18.734Z,29.84
2018-04-19T10:55:45.768Z,30.00
2018-04-19T10:58:12.861Z,30.16
2018-04-19T11:00:39.863Z,29.90
2018-04-19T11:03:06.901Z,30.05
2018-04-19T11:05:34.007Z,29.88
2018-04-19T11:08:00.973Z,29.69
2018-04-19T11:10:28.768Z,29.89
2018-04-19T11:12:56.083Z,30.43
2018-04-19T11:15:23.933Z,30.06
2018-04-19T11:17:50.960Z,30.05
2018-04-19T11:20:17.969Z,29.94
2018-04-19T11:22:45.910Z,30.02
2018-04-19T11:25:13.682Z,30.07
2018-04-19T11:27:40.743Z,30.13
2018-04-19T11:30:08.472Z,30.05
2018-04-19T11:32:35.452Z,30.19
2018-04-19T11:35:02.505Z,30.52
2018-04-19T11:37:29.529Z,30.91
2018-04-19T11:39:56.542Z,31.21
2018-04-19T11:42:23.847Z,31.43
2018-04-19T11:44:53.542Z,31.46
2018-04-19T11:47:20.619Z,31.60
2018-04-19T11:49:47.626Z,31.82
2018-04-19T11:52:14.839Z,31.66
2018-04-19T11:54:41.961Z,31.78
2018-04-19T11:57:09.140Z,31.51
2018-04-19T11:59:36.209Z,30.63
2018-04-19T12:02:03.311Z,29.54
2018-04-19T12:04:30.304Z,28.72
2018-04-19T12:06:57.298Z,28.20
2018-04-19T12:09:25.056Z,28.34
2018-04-19T12:11:52.784Z,29.11
2018-04-19T12:14:19.761Z,29.66
2018-04-19T12:16:47.552Z,29.18
2018-04-19T12:19:14.583Z,29.23
2018-04-19T12:21:41.680Z,29.85
2018-04-19T12:24:08.708Z,30.64
2018-04-19T12:26:35.819Z,30.68
2018-04-19T12:29:03.681Z,31.45
2018-04-19T12:31:31.434Z,31.18
2018-04-19T12:33:58.453Z,30.45
2018-04-19T12:36:25.475Z,30.60
2018-04-19T12:38:52.494Z,30.99
2018-04-19T12:41:19.539Z,31.36
2018-04-19T12:43:46.589Z,32.10
2018-04-19T12:46:14.335Z,31.90
2018-04-19T12:48:41.355Z,31.78
2018-04-19T12:51:08.359Z,32.12
2018-04-19T12:53:36.102Z,32.44
2018-04-19T12:56:03.836Z,32.52
2018-04-19T12:58:30.834Z,32.35
2018-04-19T13:00:57.849Z,31.99
2018-04-19T13:03:24.868Z,32.02
2018-04-19T13:05:51.839Z,31.57
2018-04-19T13:08:18.825Z,31.90
2018-04-19T13:10:45.814Z,31.69
2018-04-19T13:13:12.891Z,32.46
2018-04-19T13:15:39.912Z,32.47
2018-04-19T13:18:06.984Z,32.78
2018-04-19T13:20:34.016Z,32.05
2018-04-19T13:23:00.991Z,32.10
2018-04-19T13:25:28.745Z,32.05
2018-04-19T13:27:55.718Z,32.37
2018-04-19T13:30:22.738Z,32.54
2018-04-19T13:32:49.751Z,32.46
2018-04-19T13:35:16.759Z,32.21
2018-04-19T13:37:43.771Z,32.33
2018-04-19T13:40:10.806Z,31.92
2018-04-19T13:42:37.831Z,32.37
2018-04-19T13:45:04.888Z,32.67
2018-04-19T13:47:31.858Z,32.83
2018-04-19T13:49:58.842Z,32.53
2018-04-19T13:52:25.927Z,31.78
2018-04-19T13:54:52.922Z,31.56
2018-04-19T13:57:20.677Z,30.43
2018-04-19T13:59:47.726Z,30.03
2018-04-19T14:02:14.881Z,30.97
2018-04-19T14:04:42.052Z,31.10
2018-04-19T14:07:09.762Z,31.64
2018-04-19T14:09:36.854Z,31.99
2018-04-19T14:12:03.884Z,32.75
2018-04-19T14:14:30.889Z,32.78
2018-04-19T14:16:58.569Z,31.18
2018-04-19T14:19:25.599Z,29.85
2018-04-19T14:21:52.599Z,29.74
2018-04-19T14:24:19.616Z,30.49
2018-04-19T14:26:46.597Z,31.25
2018-04-19T14:29:14.326Z,31.92
2018-04-19T14:31:41.311Z,32.26
2018-04-19T14:34:08.426Z,31.73
2018-04-19T14:36:35.410Z,31.44
2018-04-19T14:39:02.529Z,31.69
2018-04-19T14:41:29.586Z,31.58
2018-04-19T14:43:56.584Z,31.46
2018-04-19T14:46:23.659Z,30.89
2018-04-19T14:48:50.764Z,30.75
2018-04-19T14:51:17.739Z,30.89
2018-04-19T14:53:44.809Z,30.85
2018-04-19T14:56:11.796Z,30.89
2018-04-19T14:58:38.858Z,30.76
2018-04-19T15:01:05.911Z,30.65
2018-04-19T15:03:33.674Z,30.11
2018-04-19T15:06:00.704Z,30.00
2018-04-19T15:08:27.674Z,30.34
2018-04-19T15:10:55.418Z,29.74
2018-04-19T15:13:22.496Z,29.72
2018-04-19T15:15:49.578Z,29.79
2018-04-19T15:18:16.639Z,29.45
2018-04-19T15:20:43.653Z,29.80
2018-04-19T15:23:10.636Z,29.85
2018-04-19T15:25:37.629Z,29.84
2018-04-19T15:28:04.696Z,30.12
2018-04-19T15:30:31.756Z,30.25
2018-04-19T15:32:58.777Z,30.13
2018-04-19T15:35:25.767Z,29.84
2018-04-19T15:37:53.541Z,29.55
2018-04-19T15:40:20.523Z,29.49
2018-04-19T15:42:47.493Z,29.67
2018-04-19T15:45:14.491Z,30.03
2018-04-19T15:47:41.523Z,30.41
2018-04-19T15:50:08.556Z,30.46
2018-04-19T15:52:35.536Z,30.00
2018-04-19T15:55:02.597Z,30.00
2018-04-19T15:57:29.631Z,29.24
2018-04-19T15:59:56.653Z,28.83
2018-04-19T16:02:23.636Z,28.37
2018-04-19T16:04:51.369Z,28.39
2018-04-19T16:07:18.369Z,28.62
2018-04-19T16:09:45.372Z,28.49
2018-04-19T16:12:12.469Z,28.76
2018-04-19T16:14:39.459Z,28.59
2018-04-19T16:17:06.479Z,28.34
2018-04-19T16:19:33.515Z,28.38
2018-04-19T16:22:00.599Z,28.08
2018-04-19T16:24:27.569Z,28.05
2018-04-19T16:26:55.307Z,27.56
2018-04-19T16:29:22.328Z,26.71
2018-04-19T16:31:49.318Z,25.86
2018-04-19T16:34:17.088Z,25.25
2018-04-19T16:36:44.845Z,25.00
2018-04-19T16:39:11.825Z,24.72
2018-04-19T16:41:38.899Z,24.51
2018-04-19T16:44:05.963Z,24.32
2018-04-19T16:46:32.979Z,24.21
2018-04-19T16:49:00.111Z,24.11
2018-04-19T16:51:27.124Z,24.04
2018-04-19T16:53:54.143Z,23.88
2018-04-19T16:56:21.216Z,23.75
2018-04-19T16:58:48.196Z,23.59
2018-04-19T17:01:15.315Z,23.49
2018-04-19T17:03:42.289Z,23.43
2018-04-19T17:06:09.405Z,23.39
2018-04-19T17:08:36.416Z,23.31
2018-04-19T17:11:03.519Z,23.19
2018-04-19T17:13:30.529Z,23.12
2018-04-19T17:15:57.521Z,23.06
2018-04-19T17:18:24.561Z,22.96
2018-04-19T17:20:52.419Z,22.91
2018-04-19T17:23:20.211Z,22.92
2018-04-19T17:25:47.249Z,22.83
2018-04-19T17:28:14.248Z,22.72
2018-04-19T17:30:41.256Z,22.73
2018-04-19T17:33:08.296Z,22.64
2018-04-19T17:35:36.017Z,22.51
2018-04-19T17:38:03.076Z,22.44
2018-04-19T17:40:30.209Z,22.32
2018-04-19T17:42:57.290Z,22.23
2018-04-19T17:45:25.055Z,22.13
2018-04-19T17:47:52.823Z,22.03
2018-04-19T17:50:20.567Z,21.99
2018-04-19T17:52:48.427Z,21.94
2018-04-19T17:55:15.441Z,21.87
2018-04-19T17:57:42.479Z,21.89
2018-04-19T18:00:09.531Z,21.81
2018-04-19T18:02:36.519Z,21.70
2018-04-19T18:05:03.612Z,21.51
2018-04-19T18:07:30.971Z,21.37
2018-04-19T18:09:57.964Z,21.17
2018-04-19T18:12:24.983Z,21.09
2018-04-19T18:14:52.017Z,20.98
2018-04-19T18:17:19.019Z,20.86
2018-04-19T18:19:46.757Z,20.77
2018-04-19T18:22:13.819Z,20.67
2018-04-19T18:24:40.893Z,20.61
2018-04-19T18:27:08.629Z,20.47
2018-04-19T18:29:36.248Z,20.33
2018-04-19T18:32:03.367Z,20.27
2018-04-19T18:34:30.367Z,20.16
2018-04-19T18:36:57.422Z,20.36
2018-04-19T18:39:24.439Z,20.56
2018-04-19T18:41:51.482Z,20.39
2018-04-19T18:44:18.491Z,20.28
2018-04-19T18:46:45.513Z,20.23
2018-04-19T18:49:12.522Z,20.21
2018-04-19T18:51:39.563Z,20.09
2018-04-19T18:54:06.639Z,20.10
2018-04-19T18:56:34.551Z,20.02
2018-04-19T18:59:01.615Z,19.92
2018-04-19T19:01:28.606Z,19.81
2018-04-19T19:03:55.629Z,19.72
2018-04-19T19:06:22.954Z,19.65
2018-04-19T19:08:50.762Z,19.71
2018-04-19T19:11:18.540Z,19.67
2018-04-19T19:13:45.610Z,19.57
2018-04-19T19:16:12.838Z,19.53
2018-04-19T19:18:58.070Z,19.52
2018-04-19T19:21:25.225Z,19.52
2018-04-19T19:23:52.427Z,19.67
2018-04-19T19:26:19.506Z,19.51
2018-04-19T19:28:47.286Z,19.51
2018-04-19T19:31:14.464Z,19.42
2018-04-19T19:33:41.529Z,19.33
2018-04-19T19:36:08.641Z,19.28
2018-04-19T19:38:35.805Z,19.25
2018-04-19T19:41:03.773Z,19.33
2018-04-19T19:43:30.893Z,19.26
2018-04-19T19:45:58.696Z,19.37
2018-04-19T19:48:26.731Z,19.38
2018-04-19T19:50:53.789Z,19.20
2018-04-19T19:53:20.890Z,19.19
2018-04-19T19:55:48.154Z,19.06
2018-04-19T19:58:15.260Z,18.86
2018-04-19T20:00:42.266Z,18.87
2018-04-19T20:03:11.123Z,19.02
2018-04-19T20:05:38.239Z,18.75
2018-04-19T20:08:05.416Z,18.50
2018-04-19T20:10:32.994Z,18.62
2018-04-19T20:13:00.119Z,18.45
2018-04-19T20:15:27.249Z,18.35
2018-04-19T20:17:54.351Z,18.21
2018-04-19T20:20:21.534Z,18.07
2018-04-19T20:22:49.384Z,18.11
2018-04-19T20:25:17.262Z,18.11
2018-04-19T20:27:45.552Z,18.27
2018-04-19T20:30:12.717Z,18.21
2018-04-19T20:32:40.787Z,18.24
2018-04-19T20:35:07.973Z,18.18
2018-04-19T20:37:35.063Z,18.18
2018-04-19T20:40:02.256Z,18.22
2018-04-19T20:42:29.380Z,18.12
2018-04-19T20:44:56.564Z,18.07
2018-04-19T20:47:23.651Z,17.92
2018-04-19T20:49:51.556Z,17.88
2018-04-19T20:52:18.628Z,17.87
2018-04-19T20:54:45.723Z,17.74
2018-04-19T20:57:12.868Z,17.65
2018-04-19T20:59:40.776Z,17.74
2018-04-19T21:02:07.906Z,17.61
2018-04-19T21:04:35.713Z,17.57
2018-04-19T21:07:02.909Z,17.51
2018-04-19T21:09:29.986Z,17.49
2018-04-19T21:11:57.059Z,17.57
2018-04-19T21:14:24.137Z,17.43
2018-04-19T21:16:51.273Z,17.59
2018-04-19T21:19:18.524Z,17.57
2018-04-19T21:21:45.573Z,17.39
2018-04-19T21:24:12.678Z,17.47
2018-04-19T21:26:39.799Z,17.33
2018-04-19T21:29:07.558Z,17.16
2018-04-19T21:31:35.383Z,17.03
2018-04-19T21:34:02.543Z,16.90
2018-04-19T21:36:29.645Z,16.79
2018-04-19T21:38:56.727Z,16.67
2018-04-19T21:41:23.786Z,16.55
2018-04-19T21:43:50.831Z,16.46
2018-04-19T21:46:17.897Z,16.41
2018-04-19T21:48:44.979Z,16.42
2018-04-19T21:51:12.799Z,16.61
2018-04-19T21:53:39.878Z,16.74
2018-04-19T21:56:06.992Z,16.60
2018-04-19T21:58:34.161Z,16.63
2018-04-19T22:01:01.306Z,16.54
2018-04-19T22:03:28.358Z,16.63
2018-04-19T22:05:55.404Z,16.66
2018-04-19T22:08:22.523Z,16.48
2018-04-19T22:10:49.623Z,16.33
2018-04-19T22:13:16.708Z,16.19
2018-04-19T22:15:43.777Z,16.07
2018-04-19T22:18:10.942Z,15.95
2018-04-19T22:20:38.021Z,15.77
2018-04-19T22:23:05.848Z,15.65
2018-04-19T22:25:32.974Z,15.58
2018-04-19T22:28:00.096Z,15.48
2018-04-19T22:30:27.180Z,15.48
2018-04-19T22:32:54.288Z,15.38
2018-04-19T22:35:21.401Z,15.28
2018-04-19T22:37:48.471Z,15.24
2018-04-19T22:40:16.301Z,15.23
2018-04-19T22:42:43.379Z,15.19
2018-04-19T22:45:11.185Z,15.08
2018-04-19T22:47:38.261Z,14.92
2018-04-19T22:50:05.354Z,14.81
2018-04-19T22:52:33.164Z,14.85
2018-04-19T22:55:00.263Z,14.93
2018-04-19T22:57:28.081Z,14.95
2018-04-19T22:59:55.091Z,14.97
2018-04-19T23:02:22.901Z,14.87
2018-04-19T23:04:49.963Z,14.75
2018-04-19T23:07:17.054Z,14.58
2018-04-19T23:09:44.141Z,14.44
2018-04-19T23:12:11.313Z,14.36
2018-04-19T23:14:38.381Z,14.24
2018-04-19T23:17:06.211Z,14.12
2018-04-19T23:19:33.399Z,14.12
2018-04-19T23:22:01.251Z,14.03
2018-04-19T23:24:28.294Z,13.98
2018-04-19T23:26:55.359Z,14.05
2018-04-19T23:29:22.528Z,13.99
2018-04-19T23:31:50.371Z,13.96
2018-04-19T23:34:17.452Z,13.90
2018-04-19T23:36:44.481Z,13.87
2018-04-19T23:39:12.270Z,13.92
2018-04-19T23:41:39.316Z,13.83
2018-04-19T23:44:06.382Z,13.67
2018-04-19T23:46:33.448Z,13.80
2018-04-19T23:49:00.509Z,13.69
2018-04-19T23:51:27.533Z,13.54
2018-04-19T23:53:54.646Z,13.66
2018-04-19T23:56:21.741Z,13.52
2018-04-19T23:58:48.822Z,13.58
